sensor_id;sensor_type;location;lat;lon;timestamp;temperature;humidity
34095;DHT22;20372;47.080;15.410;2022-08-11T00:00:41;19.70;74.50
34095;DHT22;20372;47.080;15.410;2022-08-11T00:03:09;19.70;75.20
34095;DHT22;20372;47.080;15.410;2022-08-11T00:05:50;19.70;74.20
34095;DHT22;20372;47.080;15.410;2022-08-11T00:08:27;19.60;75.60
34095;DHT22;20372;47.080;15.410;2022-08-11T00:10:55;19.60;75.10
34095;DHT22;20372;47.080;15.410;2022-08-11T00:13:22;19.60;76.20
34095;DHT22;20372;47.080;15.410;2022-08-11T00:15:47;20.20;75.10
34095;DHT22;20372;47.080;15.410;2022-08-11T00:18:14;19.70;74.80
34095;DHT22;20372;47.080;15.410;2022-08-11T00:20:40;19.60;74.80
34095;DHT22;20372;47.080;15.410;2022-08-11T00:23:08;19.70;74.60
34095;DHT22;20372;47.080;15.410;2022-08-11T00:25:37;20.00;76.60
34095;DHT22;20372;47.080;15.410;2022-08-11T00:28:21;19.70;74.60
34095;DHT22;20372;47.080;15.410;2022-08-11T00:30:47;19.70;76.00
34095;DHT22;20372;47.080;15.410;2022-08-11T00:33:13;20.00;75.90
34095;DHT22;20372;47.080;15.410;2022-08-11T00:35:39;19.60;76.60
34095;DHT22;20372;47.080;15.410;2022-08-11T00:38:05;19.80;75.30
34095;DHT22;20372;47.080;15.410;2022-08-11T00:40:41;19.70;77.50
34095;DHT22;20372;47.080;15.410;2022-08-11T00:45:38;19.60;75.30
34095;DHT22;20372;47.080;15.410;2022-08-11T01:03:38;19.40;74.80
34095;DHT22;20372;47.080;15.410;2022-08-11T01:06:59;19.30;75.10
34095;DHT22;20372;47.080;15.410;2022-08-11T01:09:08;19.30;76.10
34095;DHT22;20372;47.080;15.410;2022-08-11T01:16:51;19.50;76.90
34095;DHT22;20372;47.080;15.410;2022-08-11T01:27:18;19.10;76.10
34095;DHT22;20372;47.080;15.410;2022-08-11T01:32:48;19.00;76.20
34095;DHT22;20372;47.080;15.410;2022-08-11T01:35:28;18.80;76.50
34095;DHT22;20372;47.080;15.410;2022-08-11T01:46:12;19.00;77.20
34095;DHT22;20372;47.080;15.410;2022-08-11T01:53:56;19.10;75.60
34095;DHT22;20372;47.080;15.410;2022-08-11T01:56:28;19.20;75.70
34095;DHT22;20372;47.080;15.410;2022-08-11T01:59:07;19.00;77.20
34095;DHT22;20372;47.080;15.410;2022-08-11T02:06:39;19.10;80.20
34095;DHT22;20372;47.080;15.410;2022-08-11T02:11:54;19.10;75.00
34095;DHT22;20372;47.080;15.410;2022-08-11T02:14:25;19.00;74.90
34095;DHT22;20372;47.080;15.410;2022-08-11T02:17:06;19.10;75.40
34095;DHT22;20372;47.080;15.410;2022-08-11T02:19:40;19.00;75.30
34095;DHT22;20372;47.080;15.410;2022-08-11T02:30:26;19.00;75.30
34095;DHT22;20372;47.080;15.410;2022-08-11T02:40:52;19.10;76.10
34095;DHT22;20372;47.080;15.410;2022-08-11T02:46:15;19.20;74.50
34095;DHT22;20372;47.080;15.410;2022-08-11T02:51:53;18.90;77.00
34095;DHT22;20372;47.080;15.410;2022-08-11T02:57:09;19.00;79.30
34095;DHT22;20372;47.080;15.410;2022-08-11T02:59:50;18.70;83.60
34095;DHT22;20372;47.080;15.410;2022-08-11T03:15:27;18.10;83.30
34095;DHT22;20372;47.080;15.410;2022-08-11T03:18:23;18.00;79.80
34095;DHT22;20372;47.080;15.410;2022-08-11T03:23:30;17.80;85.00
34095;DHT22;20372;47.080;15.410;2022-08-11T03:31:29;17.60;86.90
34095;DHT22;20372;47.080;15.410;2022-08-11T03:34:00;17.40;86.00
34095;DHT22;20372;47.080;15.410;2022-08-11T03:52:50;17.30;89.20
34095;DHT22;20372;47.080;15.410;2022-08-11T03:58:07;17.00;88.30
34095;DHT22;20372;47.080;15.410;2022-08-11T04:03:33;17.10;89.40
34095;DHT22;20372;47.080;15.410;2022-08-11T04:09:05;17.00;90.40
34095;DHT22;20372;47.080;15.410;2022-08-11T04:30:17;18.40;81.80
34095;DHT22;20372;47.080;15.410;2022-08-11T04:48:43;18.20;84.60
34095;DHT22;20372;47.080;15.410;2022-08-11T05:03:42;19.00;81.60
34095;DHT22;20372;47.080;15.410;2022-08-11T05:06:49;19.60;80.10
34095;DHT22;20372;47.080;15.410;2022-08-11T05:09:07;20.30;78.80
34095;DHT22;20372;47.080;15.410;2022-08-11T05:17:53;21.40;76.40
34095;DHT22;20372;47.080;15.410;2022-08-11T05:20:11;21.20;76.80
34095;DHT22;20372;47.080;15.410;2022-08-11T05:22:56;20.70;79.20
34095;DHT22;20372;47.080;15.410;2022-08-11T05:25:44;21.10;75.80
34095;DHT22;20372;47.080;15.410;2022-08-11T05:31:14;21.10;76.40
34095;DHT22;20372;47.080;15.410;2022-08-11T05:34:09;21.50;74.80
34095;DHT22;20372;47.080;15.410;2022-08-11T05:39:24;20.90;74.60
34095;DHT22;20372;47.080;15.410;2022-08-11T05:42:08;21.30;74.20
34095;DHT22;20372;47.080;15.410;2022-08-11T05:44:54;21.50;75.00
34095;DHT22;20372;47.080;15.410;2022-08-11T05:47:39;21.90;71.80
34095;DHT22;20372;47.080;15.410;2022-08-11T05:50:24;22.40;74.20
34095;DHT22;20372;47.080;15.410;2022-08-11T05:53:08;22.70;72.00
34095;DHT22;20372;47.080;15.410;2022-08-11T05:55:53;22.40;73.10
34095;DHT22;20372;47.080;15.410;2022-08-11T05:58:39;22.70;72.60
34095;DHT22;20372;47.080;15.410;2022-08-11T06:01:05;22.50;73.10
34095;DHT22;20372;47.080;15.410;2022-08-11T06:03:31;21.40;72.40
34095;DHT22;20372;47.080;15.410;2022-08-11T06:05:57;21.70;76.80
34095;DHT22;20372;47.080;15.410;2022-08-11T06:08:30;22.50;71.80
34095;DHT22;20372;47.080;15.410;2022-08-11T06:11:01;23.40;72.80
34095;DHT22;20372;47.080;15.410;2022-08-11T06:13:27;23.40;68.10
34095;DHT22;20372;47.080;15.410;2022-08-11T06:15:53;23.90;70.60
34095;DHT22;20372;47.080;15.410;2022-08-11T06:18:20;24.10;70.10
34095;DHT22;20372;47.080;15.410;2022-08-11T06:21:07;24.10;69.60
34095;DHT22;20372;47.080;15.410;2022-08-11T06:23:33;24.20;69.70
34095;DHT22;20372;47.080;15.410;2022-08-11T06:25:59;24.10;69.60
34095;DHT22;20372;47.080;15.410;2022-08-11T06:28:30;24.20;68.00
34095;DHT22;20372;47.080;15.410;2022-08-11T06:30:55;24.30;67.80
34095;DHT22;20372;47.080;15.410;2022-08-11T06:33:29;24.40;68.50
34095;DHT22;20372;47.080;15.410;2022-08-11T06:38:35;24.70;67.70
34095;DHT22;20372;47.080;15.410;2022-08-11T06:41:03;24.70;68.80
34095;DHT22;20372;47.080;15.410;2022-08-11T06:43:52;24.80;67.80
34095;DHT22;20372;47.080;15.410;2022-08-11T06:46:28;24.80;66.40
34095;DHT22;20372;47.080;15.410;2022-08-11T06:48:55;25.10;66.20
34095;DHT22;20372;47.080;15.410;2022-08-11T06:51:21;24.80;66.00
34095;DHT22;20372;47.080;15.410;2022-08-11T06:56:13;25.10;67.10
34095;DHT22;20372;47.080;15.410;2022-08-11T06:58:59;25.40;66.50
34095;DHT22;20372;47.080;15.410;2022-08-11T07:10:12;25.40;63.30
34095;DHT22;20372;47.080;15.410;2022-08-11T07:13:03;25.60;64.00
34095;DHT22;20372;47.080;15.410;2022-08-11T07:16:07;26.00;63.20
34095;DHT22;20372;47.080;15.410;2022-08-11T07:18:34;26.20;63.20
34095;DHT22;20372;47.080;15.410;2022-08-11T07:21:28;26.40;61.80
34095;DHT22;20372;47.080;15.410;2022-08-11T07:24:17;26.30;63.60
34095;DHT22;20372;47.080;15.410;2022-08-11T07:27:03;25.80;61.70
34095;DHT22;20372;47.080;15.410;2022-08-11T07:29:49;26.20;63.80
34095;DHT22;20372;47.080;15.410;2022-08-11T07:32:24;25.80;64.50
34095;DHT22;20372;47.080;15.410;2022-08-11T07:34:54;26.30;63.90
34095;DHT22;20372;47.080;15.410;2022-08-11T07:37:21;26.80;63.80
34095;DHT22;20372;47.080;15.410;2022-08-11T07:39:48;27.20;64.30
34095;DHT22;20372;47.080;15.410;2022-08-11T07:42:17;26.80;60.50
34095;DHT22;20372;47.080;15.410;2022-08-11T07:44:44;27.80;60.90
34095;DHT22;20372;47.080;15.410;2022-08-11T07:47:29;28.60;58.80
34095;DHT22;20372;47.080;15.410;2022-08-11T07:50:14;29.00;60.10
34095;DHT22;20372;47.080;15.410;2022-08-11T07:52:59;28.80;59.70
34095;DHT22;20372;47.080;15.410;2022-08-11T07:55:25;28.40;58.00
34095;DHT22;20372;47.080;15.410;2022-08-11T07:57:52;28.20;62.10
34095;DHT22;20372;47.080;15.410;2022-08-11T08:03:21;27.80;61.10
34095;DHT22;20372;47.080;15.410;2022-08-11T08:06:06;27.20;59.60
34095;DHT22;20372;47.080;15.410;2022-08-11T08:08:50;26.90;60.10
34095;DHT22;20372;47.080;15.410;2022-08-11T08:11:35;26.80;65.20
34095;DHT22;20372;47.080;15.410;2022-08-11T08:14:19;27.10;59.80
34095;DHT22;20372;47.080;15.410;2022-08-11T08:17:04;26.00;59.00
34095;DHT22;20372;47.080;15.410;2022-08-11T08:19:48;26.40;61.00
34095;DHT22;20372;47.080;15.410;2022-08-11T08:22:15;26.50;61.20
34095;DHT22;20372;47.080;15.410;2022-08-11T08:24:41;26.80;58.10
34095;DHT22;20372;47.080;15.410;2022-08-11T08:27:08;26.10;60.10
34095;DHT22;20372;47.080;15.410;2022-08-11T08:29:36;26.40;62.00
34095;DHT22;20372;47.080;15.410;2022-08-11T08:32:21;26.80;59.40
34095;DHT22;20372;47.080;15.410;2022-08-11T08:34:51;27.20;60.70
34095;DHT22;20372;47.080;15.410;2022-08-11T08:37:18;27.80;63.90
34095;DHT22;20372;47.080;15.410;2022-08-11T08:39:44;28.30;59.60
34095;DHT22;20372;47.080;15.410;2022-08-11T08:42:11;28.40;59.40
34095;DHT22;20372;47.080;15.410;2022-08-11T08:44:41;28.40;61.10
34095;DHT22;20372;47.080;15.410;2022-08-11T08:47:14;28.40;59.10
34095;DHT22;20372;47.080;15.410;2022-08-11T08:49:45;27.20;57.60
34095;DHT22;20372;47.080;15.410;2022-08-11T08:52:14;27.20;58.60
34095;DHT22;20372;47.080;15.410;2022-08-11T08:54:41;26.80;58.30
34095;DHT22;20372;47.080;15.410;2022-08-11T08:57:08;26.90;58.90
34095;DHT22;20372;47.080;15.410;2022-08-11T08:59:38;26.80;59.80
34095;DHT22;20372;47.080;15.410;2022-08-11T09:02:05;25.90;59.80
34095;DHT22;20372;47.080;15.410;2022-08-11T09:04:31;26.40;63.20
34095;DHT22;20372;47.080;15.410;2022-08-11T09:06:58;26.60;59.90
34095;DHT22;20372;47.080;15.410;2022-08-11T09:09:24;27.20;58.70
34095;DHT22;20372;47.080;15.410;2022-08-11T09:11:50;27.50;64.00
34095;DHT22;20372;47.080;15.410;2022-08-11T09:16:44;27.60;62.40
34095;DHT22;20372;47.080;15.410;2022-08-11T09:19:15;27.60;60.70
34095;DHT22;20372;47.080;15.410;2022-08-11T09:21:44;27.30;57.60
34095;DHT22;20372;47.080;15.410;2022-08-11T09:24:30;26.00;59.10
34095;DHT22;20372;47.080;15.410;2022-08-11T09:27:14;25.70;62.30
34095;DHT22;20372;47.080;15.410;2022-08-11T09:29:40;26.30;59.50
34095;DHT22;20372;47.080;15.410;2022-08-11T09:32:08;26.60;58.80
34095;DHT22;20372;47.080;15.410;2022-08-11T09:34:34;25.80;59.30
34095;DHT22;20372;47.080;15.410;2022-08-11T09:37:01;26.10;61.90
34095;DHT22;20372;47.080;15.410;2022-08-11T09:39:46;26.60;60.00
34095;DHT22;20372;47.080;15.410;2022-08-11T09:42:30;26.70;58.90
34095;DHT22;20372;47.080;15.410;2022-08-11T09:45:15;26.60;59.00
34095;DHT22;20372;47.080;15.410;2022-08-11T09:47:41;25.90;59.20
34095;DHT22;20372;47.080;15.410;2022-08-11T09:50:08;26.00;60.90
34095;DHT22;20372;47.080;15.410;2022-08-11T09:52:37;26.70;61.60
34095;DHT22;20372;47.080;15.410;2022-08-11T09:55:04;26.60;62.30
34095;DHT22;20372;47.080;15.410;2022-08-11T09:57:38;27.60;60.80
34095;DHT22;20372;47.080;15.410;2022-08-11T10:00:33;27.60;59.30
34095;DHT22;20372;47.080;15.410;2022-08-11T10:05:36;26.70;58.40
34095;DHT22;20372;47.080;15.410;2022-08-11T10:08:20;26.00;60.20
34095;DHT22;20372;47.080;15.410;2022-08-11T10:10:47;26.20;59.80
34095;DHT22;20372;47.080;15.410;2022-08-11T10:13:15;26.30;59.40
34095;DHT22;20372;47.080;15.410;2022-08-11T10:15:41;26.60;59.10
34095;DHT22;20372;47.080;15.410;2022-08-11T10:18:12;27.20;61.10
34095;DHT22;20372;47.080;15.410;2022-08-11T10:20:58;27.20;63.50
34095;DHT22;20372;47.080;15.410;2022-08-11T10:23:24;27.90;59.20
34095;DHT22;20372;47.080;15.410;2022-08-11T10:26:09;27.90;58.20
34095;DHT22;20372;47.080;15.410;2022-08-11T10:28:53;26.40;58.80
34095;DHT22;20372;47.080;15.410;2022-08-11T10:31:19;25.70;58.10
34095;DHT22;20372;47.080;15.410;2022-08-11T10:34:05;25.80;58.70
34095;DHT22;20372;47.080;15.410;2022-08-11T10:36:33;26.30;59.60
34095;DHT22;20372;47.080;15.410;2022-08-11T10:39:00;26.50;60.10
34095;DHT22;20372;47.080;15.410;2022-08-11T10:41:26;27.50;61.40
34095;DHT22;20372;47.080;15.410;2022-08-11T10:44:11;27.30;59.40
34095;DHT22;20372;47.080;15.410;2022-08-11T10:46:37;27.40;59.60
34095;DHT22;20372;47.080;15.410;2022-08-11T10:49:22;27.80;58.70
34095;DHT22;20372;47.080;15.410;2022-08-11T10:51:49;28.00;57.70
34095;DHT22;20372;47.080;15.410;2022-08-11T10:54:33;27.50;57.10
34095;DHT22;20372;47.080;15.410;2022-08-11T10:57:19;27.30;56.70
34095;DHT22;20372;47.080;15.410;2022-08-11T11:00:04;26.90;57.50
34095;DHT22;20372;47.080;15.410;2022-08-11T11:02:31;27.10;56.90
34095;DHT22;20372;47.080;15.410;2022-08-11T11:05:02;26.10;57.70
34095;DHT22;20372;47.080;15.410;2022-08-11T11:07:30;26.10;58.40
34095;DHT22;20372;47.080;15.410;2022-08-11T11:10:05;26.30;58.60
34095;DHT22;20372;47.080;15.410;2022-08-11T11:15:18;26.60;60.10
34095;DHT22;20372;47.080;15.410;2022-08-11T11:18:05;27.40;59.70
34095;DHT22;20372;47.080;15.410;2022-08-11T11:20:33;27.90;59.60
34095;DHT22;20372;47.080;15.410;2022-08-11T11:25:50;27.50;58.10
34095;DHT22;20372;47.080;15.410;2022-08-11T11:36:57;27.40;62.20
34095;DHT22;20372;47.080;15.410;2022-08-11T11:39:04;27.70;59.10
34095;DHT22;20372;47.080;15.410;2022-08-11T11:41:31;27.30;59.30
34095;DHT22;20372;47.080;15.410;2022-08-11T11:43:57;26.90;58.90
34095;DHT22;20372;47.080;15.410;2022-08-11T11:46:25;26.50;57.40
34095;DHT22;20372;47.080;15.410;2022-08-11T11:48:52;26.40;58.20
34095;DHT22;20372;47.080;15.410;2022-08-11T11:51:18;26.30;59.00
34095;DHT22;20372;47.080;15.410;2022-08-11T11:53:45;26.20;59.60
34095;DHT22;20372;47.080;15.410;2022-08-11T11:56:12;26.30;61.90
34095;DHT22;20372;47.080;15.410;2022-08-11T11:58:38;26.90;63.70
34095;DHT22;20372;47.080;15.410;2022-08-11T12:01:23;27.20;59.40
34095;DHT22;20372;47.080;15.410;2022-08-11T12:03:51;27.00;57.20
34095;DHT22;20372;47.080;15.410;2022-08-11T12:06:17;26.90;58.00
34095;DHT22;20372;47.080;15.410;2022-08-11T12:08:44;26.80;59.00
34095;DHT22;20372;47.080;15.410;2022-08-11T12:11:12;26.70;59.10
34095;DHT22;20372;47.080;15.410;2022-08-11T12:14:01;26.70;57.40
34095;DHT22;20372;47.080;15.410;2022-08-11T12:16:27;26.80;57.90
34095;DHT22;20372;47.080;15.410;2022-08-11T12:18:54;26.80;57.70
34095;DHT22;20372;47.080;15.410;2022-08-11T12:21:21;27.10;60.70
34095;DHT22;20372;47.080;15.410;2022-08-11T12:23:48;27.40;57.60
34095;DHT22;20372;47.080;15.410;2022-08-11T12:26:32;27.60;56.80
34095;DHT22;20372;47.080;15.410;2022-08-11T12:29:17;27.60;58.30
34095;DHT22;20372;47.080;15.410;2022-08-11T12:31:44;27.80;58.90
34095;DHT22;20372;47.080;15.410;2022-08-11T12:34:10;27.30;56.60
34095;DHT22;20372;47.080;15.410;2022-08-11T12:36:37;27.20;56.30
34095;DHT22;20372;47.080;15.410;2022-08-11T12:39:08;27.40;59.80
34095;DHT22;20372;47.080;15.410;2022-08-11T12:41:35;27.80;59.70
34095;DHT22;20372;47.080;15.410;2022-08-11T12:44:19;28.20;61.40
34095;DHT22;20372;47.080;15.410;2022-08-11T12:47:06;27.70;56.00
34095;DHT22;20372;47.080;15.410;2022-08-11T12:49:34;27.10;57.30
34095;DHT22;20372;47.080;15.410;2022-08-11T12:52:29;27.20;58.90
34095;DHT22;20372;47.080;15.410;2022-08-11T12:54:59;27.60;56.50
34095;DHT22;20372;47.080;15.410;2022-08-11T12:57:30;27.70;56.50
34095;DHT22;20372;47.080;15.410;2022-08-11T13:00:15;27.00;56.60
34095;DHT22;20372;47.080;15.410;2022-08-11T13:03:00;26.80;56.50
34095;DHT22;20372;47.080;15.410;2022-08-11T13:05:45;26.70;56.80
34095;DHT22;20372;47.080;15.410;2022-08-11T13:08:11;26.50;56.50
34095;DHT22;20372;47.080;15.410;2022-08-11T13:10:39;26.50;56.80
34095;DHT22;20372;47.080;15.410;2022-08-11T13:13:23;26.30;56.80
34095;DHT22;20372;47.080;15.410;2022-08-11T13:15:49;25.90;57.20
34095;DHT22;20372;47.080;15.410;2022-08-11T13:18:16;26.20;57.40
34095;DHT22;20372;47.080;15.410;2022-08-11T13:20:43;26.60;59.90
34095;DHT22;20372;47.080;15.410;2022-08-11T13:23:09;26.90;58.70
34095;DHT22;20372;47.080;15.410;2022-08-11T13:25:37;26.90;56.80
34095;DHT22;20372;47.080;15.410;2022-08-11T13:28:04;27.10;58.50
34095;DHT22;20372;47.080;15.410;2022-08-11T13:30:30;27.30;56.50
34095;DHT22;20372;47.080;15.410;2022-08-11T13:33:15;27.00;57.70
34095;DHT22;20372;47.080;15.410;2022-08-11T13:35:42;27.40;59.40
34095;DHT22;20372;47.080;15.410;2022-08-11T13:38:08;27.50;56.60
34095;DHT22;20372;47.080;15.410;2022-08-11T13:40:37;27.30;56.30
34095;DHT22;20372;47.080;15.410;2022-08-11T13:43:05;27.30;56.90
34095;DHT22;20372;47.080;15.410;2022-08-11T13:45:31;27.40;56.30
34095;DHT22;20372;47.080;15.410;2022-08-11T13:47:57;27.30;57.00
34095;DHT22;20372;47.080;15.410;2022-08-11T13:50:24;27.30;56.50
34095;DHT22;20372;47.080;15.410;2022-08-11T13:53:09;27.50;56.50
34095;DHT22;20372;47.080;15.410;2022-08-11T13:55:38;27.60;57.20
34095;DHT22;20372;47.080;15.410;2022-08-11T13:58:04;27.20;56.60
34095;DHT22;20372;47.080;15.410;2022-08-11T14:00:30;27.00;56.60
34095;DHT22;20372;47.080;15.410;2022-08-11T14:02:55;26.90;57.20
34095;DHT22;20372;47.080;15.410;2022-08-11T14:05:24;27.00;56.60
34095;DHT22;20372;47.080;15.410;2022-08-11T14:07:52;26.70;57.00
34095;DHT22;20372;47.080;15.410;2022-08-11T14:10:19;26.50;58.60
34095;DHT22;20372;47.080;15.410;2022-08-11T14:12:56;26.30;57.60
34095;DHT22;20372;47.080;15.410;2022-08-11T14:15:42;26.20;58.00
34095;DHT22;20372;47.080;15.410;2022-08-11T14:20:41;26.20;57.60
34095;DHT22;20372;47.080;15.410;2022-08-11T14:23:27;26.20;57.60
34095;DHT22;20372;47.080;15.410;2022-08-11T14:25:54;26.30;57.80
34095;DHT22;20372;47.080;15.410;2022-08-11T14:28:38;26.40;58.10
34095;DHT22;20372;47.080;15.410;2022-08-11T14:31:04;26.40;57.60
34095;DHT22;20372;47.080;15.410;2022-08-11T14:33:31;26.20;58.10
34095;DHT22;20372;47.080;15.410;2022-08-11T14:35:58;26.10;58.10
34095;DHT22;20372;47.080;15.410;2022-08-11T14:38:24;26.20;58.30
34095;DHT22;20372;47.080;15.410;2022-08-11T14:40:50;26.20;58.30
34095;DHT22;20372;47.080;15.410;2022-08-11T14:43:34;26.20;58.20
34095;DHT22;20372;47.080;15.410;2022-08-11T14:46:19;26.40;57.90
34095;DHT22;20372;47.080;15.410;2022-08-11T14:49:03;26.50;60.00
34095;DHT22;20372;47.080;15.410;2022-08-11T14:51:29;26.70;59.50
34095;DHT22;20372;47.080;15.410;2022-08-11T14:53:56;26.70;58.30
34095;DHT22;20372;47.080;15.410;2022-08-11T14:56:42;26.80;59.80
34095;DHT22;20372;47.080;15.410;2022-08-11T14:59:09;26.90;58.40
34095;DHT22;20372;47.080;15.410;2022-08-11T15:01:36;27.10;57.40
34095;DHT22;20372;47.080;15.410;2022-08-11T15:04:21;27.00;58.60
34095;DHT22;20372;47.080;15.410;2022-08-11T15:06:47;27.40;56.90
34095;DHT22;20372;47.080;15.410;2022-08-11T15:09:14;27.80;57.90
34095;DHT22;20372;47.080;15.410;2022-08-11T15:11:40;27.90;57.30
34095;DHT22;20372;47.080;15.410;2022-08-11T15:14:24;27.90;57.20
34095;DHT22;20372;47.080;15.410;2022-08-11T15:17:09;27.70;55.80
34095;DHT22;20372;47.080;15.410;2022-08-11T15:19:38;27.50;57.40
34095;DHT22;20372;47.080;15.410;2022-08-11T15:22:24;27.20;56.40
34095;DHT22;20372;47.080;15.410;2022-08-11T15:25:09;26.90;58.00
34095;DHT22;20372;47.080;15.410;2022-08-11T15:27:34;26.50;57.60
34095;DHT22;20372;47.080;15.410;2022-08-11T15:30:19;26.40;57.90
34095;DHT22;20372;47.080;15.410;2022-08-11T15:33:05;26.40;57.60
34095;DHT22;20372;47.080;15.410;2022-08-11T15:35:50;26.60;57.00
34095;DHT22;20372;47.080;15.410;2022-08-11T15:38:34;26.60;57.20
34095;DHT22;20372;47.080;15.410;2022-08-11T15:41:04;26.50;57.90
34095;DHT22;20372;47.080;15.410;2022-08-11T15:43:50;26.40;57.40
34095;DHT22;20372;47.080;15.410;2022-08-11T15:46:48;26.40;57.40
34095;DHT22;20372;47.080;15.410;2022-08-11T15:51:41;26.30;57.90
34095;DHT22;20372;47.080;15.410;2022-08-11T15:54:18;26.20;58.20
34095;DHT22;20372;47.080;15.410;2022-08-11T15:56:46;26.10;58.10
34095;DHT22;20372;47.080;15.410;2022-08-11T15:59:13;26.00;58.40
34095;DHT22;20372;47.080;15.410;2022-08-11T16:01:58;26.10;58.40
34095;DHT22;20372;47.080;15.410;2022-08-11T16:04:40;26.30;59.20
34095;DHT22;20372;47.080;15.410;2022-08-11T16:07:07;26.10;59.10
34095;DHT22;20372;47.080;15.410;2022-08-11T16:12:21;25.90;58.50
34095;DHT22;20372;47.080;15.410;2022-08-11T16:14:50;25.90;58.90
34095;DHT22;20372;47.080;15.410;2022-08-11T16:17:37;25.90;58.70
34095;DHT22;20372;47.080;15.410;2022-08-11T16:20:05;25.90;59.50
34095;DHT22;20372;47.080;15.410;2022-08-11T16:22:32;25.80;58.70
34095;DHT22;20372;47.080;15.410;2022-08-11T16:25:04;25.70;58.50
34095;DHT22;20372;47.080;15.410;2022-08-11T16:27:34;25.70;58.60
34095;DHT22;20372;47.080;15.410;2022-08-11T16:30:00;25.80;58.70
34095;DHT22;20372;47.080;15.410;2022-08-11T16:32:26;25.70;59.40
34095;DHT22;20372;47.080;15.410;2022-08-11T16:35:06;25.60;59.00
34095;DHT22;20372;47.080;15.410;2022-08-11T16:37:51;25.60;59.00
34095;DHT22;20372;47.080;15.410;2022-08-11T16:40:36;25.50;58.80
34095;DHT22;20372;47.080;15.410;2022-08-11T16:43:02;25.60;59.10
34095;DHT22;20372;47.080;15.410;2022-08-11T16:45:48;25.60;58.30
34095;DHT22;20372;47.080;15.410;2022-08-11T16:48:33;25.40;58.40
34095;DHT22;20372;47.080;15.410;2022-08-11T16:50:59;25.40;58.70
34095;DHT22;20372;47.080;15.410;2022-08-11T16:53:28;25.20;59.20
34095;DHT22;20372;47.080;15.410;2022-08-11T16:55:55;25.10;59.40
34095;DHT22;20372;47.080;15.410;2022-08-11T16:58:22;25.10;59.80
34095;DHT22;20372;47.080;15.410;2022-08-11T17:01:07;25.00;59.50
34095;DHT22;20372;47.080;15.410;2022-08-11T17:03:33;25.00;59.90
34095;DHT22;20372;47.080;15.410;2022-08-11T17:06:17;25.10;60.10
34095;DHT22;20372;47.080;15.410;2022-08-11T17:09:02;25.10;59.70
34095;DHT22;20372;47.080;15.410;2022-08-11T17:11:51;25.00;59.80
34095;DHT22;20372;47.080;15.410;2022-08-11T17:14:59;24.90;59.70
34095;DHT22;20372;47.080;15.410;2022-08-11T17:17:35;24.90;59.60
34095;DHT22;20372;47.080;15.410;2022-08-11T17:20:03;24.80;59.70
34095;DHT22;20372;47.080;15.410;2022-08-11T17:22:32;24.80;59.90
34095;DHT22;20372;47.080;15.410;2022-08-11T17:25:17;24.70;60.00
34095;DHT22;20372;47.080;15.410;2022-08-11T17:27:43;24.70;60.10
34095;DHT22;20372;47.080;15.410;2022-08-11T17:30:10;24.60;60.20
34095;DHT22;20372;47.080;15.410;2022-08-11T17:32:39;24.60;60.10
34095;DHT22;20372;47.080;15.410;2022-08-11T17:35:33;24.70;60.10
34095;DHT22;20372;47.080;15.410;2022-08-11T17:40:25;24.50;60.40
34095;DHT22;20372;47.080;15.410;2022-08-11T17:42:52;24.50;60.60
34095;DHT22;20372;47.080;15.410;2022-08-11T17:45:38;24.40;60.90
34095;DHT22;20372;47.080;15.410;2022-08-11T17:48:31;24.40;61.60
34095;DHT22;20372;47.080;15.410;2022-08-11T17:51:00;24.40;61.30
34095;DHT22;20372;47.080;15.410;2022-08-11T17:53:32;24.30;61.80
34095;DHT22;20372;47.080;15.410;2022-08-11T17:56:20;24.20;62.20
34095;DHT22;20372;47.080;15.410;2022-08-11T17:59:07;24.20;61.70
34095;DHT22;20372;47.080;15.410;2022-08-11T18:01:51;24.20;61.90
34095;DHT22;20372;47.080;15.410;2022-08-11T18:04:17;24.20;62.20
34095;DHT22;20372;47.080;15.410;2022-08-11T18:06:43;24.10;62.30
34095;DHT22;20372;47.080;15.410;2022-08-11T18:09:12;24.20;62.20
34095;DHT22;20372;47.080;15.410;2022-08-11T18:11:58;24.10;61.90
34095;DHT22;20372;47.080;15.410;2022-08-11T18:14:50;24.10;62.00
34095;DHT22;20372;47.080;15.410;2022-08-11T18:17:35;24.10;62.30
34095;DHT22;20372;47.080;15.410;2022-08-11T18:20:19;24.10;62.30
34095;DHT22;20372;47.080;15.410;2022-08-11T18:23:06;24.00;62.50
34095;DHT22;20372;47.080;15.410;2022-08-11T18:25:51;23.90;62.50
34095;DHT22;20372;47.080;15.410;2022-08-11T18:28:37;23.80;62.60
34095;DHT22;20372;47.080;15.410;2022-08-11T18:31:22;23.80;62.70
34095;DHT22;20372;47.080;15.410;2022-08-11T18:34:09;23.80;63.00
34095;DHT22;20372;47.080;15.410;2022-08-11T18:37:04;23.80;63.40
34095;DHT22;20372;47.080;15.410;2022-08-11T18:40:04;23.70;63.80
34095;DHT22;20372;47.080;15.410;2022-08-11T18:42:50;23.60;63.10
34095;DHT22;20372;47.080;15.410;2022-08-11T18:45:35;23.50;63.70
34095;DHT22;20372;47.080;15.410;2022-08-11T18:48:22;23.50;63.10
34095;DHT22;20372;47.080;15.410;2022-08-11T18:51:08;23.50;62.70
34095;DHT22;20372;47.080;15.410;2022-08-11T18:53:53;23.50;62.80
34095;DHT22;20372;47.080;15.410;2022-08-11T18:56:39;23.50;62.90
34095;DHT22;20372;47.080;15.410;2022-08-11T18:59:25;23.40;62.80
34095;DHT22;20372;47.080;15.410;2022-08-11T19:02:10;23.50;62.70
34095;DHT22;20372;47.080;15.410;2022-08-11T19:04:56;23.50;62.50
34095;DHT22;20372;47.080;15.410;2022-08-11T19:07:42;23.40;62.70
34095;DHT22;20372;47.080;15.410;2022-08-11T19:10:28;23.40;62.30
34095;DHT22;20372;47.080;15.410;2022-08-11T19:13:12;23.40;62.60
34095;DHT22;20372;47.080;15.410;2022-08-11T19:15:57;23.40;62.20
34095;DHT22;20372;47.080;15.410;2022-08-11T19:18:41;23.30;62.20
34095;DHT22;20372;47.080;15.410;2022-08-11T19:21:27;23.20;62.30
34095;DHT22;20372;47.080;15.410;2022-08-11T19:24:13;23.20;62.30
34095;DHT22;20372;47.080;15.410;2022-08-11T19:26:58;23.20;62.30
34095;DHT22;20372;47.080;15.410;2022-08-11T19:29:43;23.10;62.10
34095;DHT22;20372;47.080;15.410;2022-08-11T19:32:28;23.10;62.20
34095;DHT22;20372;47.080;15.410;2022-08-11T19:35:12;23.20;62.00
34095;DHT22;20372;47.080;15.410;2022-08-11T19:37:57;23.10;63.70
34095;DHT22;20372;47.080;15.410;2022-08-11T19:40:42;23.00;62.20
34095;DHT22;20372;47.080;15.410;2022-08-11T19:43:27;23.00;62.30
34095;DHT22;20372;47.080;15.410;2022-08-11T19:46:12;22.90;62.40
34095;DHT22;20372;47.080;15.410;2022-08-11T19:48:58;22.90;62.20
34095;DHT22;20372;47.080;15.410;2022-08-11T19:51:43;22.90;62.40
34095;DHT22;20372;47.080;15.410;2022-08-11T19:54:32;22.90;62.10